Time;durP1;ratioP1;P1;durP2;ratioP2;P2;SDS_P1;SDS_P2;PMS_P1;PMS_P2;Temp;Humidity;BMP_temperature;BMP_pressure;BME280_temperature;BME280_humidity;BME280_pressure;Samples;Min_cycle;Max_cycle;Signal;HPM_P1;HPM_P2
2021/11/18 00:01:28;;;;;;;5.80;1.60;;;16.40;96.50;;;;;;4919631;29;20024;-45
2021/11/18 00:03:54;;;;;;;4.28;1.85;;;16.50;96.70;;;;;;4919282;29;20107;-46
2021/11/18 00:06:21;;;;;;;2.83;1.52;;;16.60;96.90;;;;;;4919572;29;20386;-46
2021/11/18 00:08:46;;;;;;;4.88;2.33;;;16.50;97.10;;;;;;4919310;29;20036;-45
2021/11/18 00:11:14;;;;;;;7.72;2.42;;;16.50;73.40;;;;;;4919332;29;20435;-45
2021/11/18 00:13:44;;;;;;;4.00;1.85;;;16.50;73.60;;;;;;4919233;29;20048;-45
2021/11/18 00:16:10;;;;;;;5.47;1.95;;;16.40;97.40;;;;;;4919120;29;20036;-46
2021/11/18 00:18:37;;;;;;;6.40;2.10;;;16.40;97.40;;;;;;4919148;29;20471;-46
2021/11/18 00:21:13;;;;;;;8.52;2.13;;;16.40;97.40;;;;;;4919259;29;20032;-46
2021/11/18 00:23:43;;;;;;;5.40;2.05;;;16.50;97.30;;;;;;4919065;29;20072;-47
2021/11/18 00:26:09;;;;;;;4.03;1.70;;;16.40;73.50;;;;;;4918909;29;20039;-47
2021/11/18 00:28:35;;;;;;;5.53;1.77;;;16.50;87.30;;;;;;4918985;29;20609;-47
2021/11/18 00:31:02;;;;;;;5.82;1.95;;;16.40;80.90;;;;;;4918761;29;20119;-45
2021/11/18 00:33:28;;;;;;;6.18;2.00;;;16.40;97.40;;;;;;4919078;29;20066;-45
2021/11/18 00:35:54;;;;;;;5.40;1.73;;;16.40;97.40;;;;;;4918833;29;20436;-45
2021/11/18 00:38:20;;;;;;;5.00;1.90;;;16.40;96.60;;;;;;4918979;29;20035;-46
2021/11/18 00:40:49;;;;;;;5.78;2.13;;;16.40;96.60;;;;;;4918684;29;20028;-45
2021/11/18 00:43:17;;;;;;;5.68;1.95;;;16.30;96.30;;;;;;4918635;29;20040;-45
2021/11/18 00:45:43;;;;;;;5.80;1.70;;;16.60;96.40;;;;;;4918899;29;20103;-45
2021/11/18 00:48:10;;;;;;;3.15;1.88;;;16.50;96.50;;;;;;4918550;29;20097;-46
2021/11/18 00:50:39;;;;;;;3.92;1.35;;;16.40;96.50;;;;;;4918791;29;20036;-45
2021/11/18 00:53:05;;;;;;;3.63;1.45;;;16.30;96.50;;;;;;4918685;29;20050;-45
2021/11/18 00:55:32;;;;;;;3.55;1.58;;;16.70;96.70;;;;;;4918789;29;20020;-45
2021/11/18 00:57:58;;;;;;;6.75;1.95;;;16.40;97.10;;;;;;4918357;29;20035;-46
2021/11/18 01:00:31;;;;;;;4.00;1.70;;;16.30;97.40;;;;;;4917225;29;20032;-45
2021/11/18 01:02:58;;;;;;;5.22;1.67;;;16.30;75.70;;;;;;4918555;29;20040;-45
2021/11/18 01:05:27;;;;;;;6.32;1.70;;;16.20;97.60;;;;;;4918524;29;20035;-45
2021/11/18 01:07:57;;;;;;;4.22;1.50;;;16.40;97.80;;;;;;4918387;29;20472;-45
2021/11/18 01:10:28;;;;;;;3.58;1.63;;;16.40;97.80;;;;;;4918727;29;20032;-45
2021/11/18 01:12:54;;;;;;;8.63;2.17;;;16.30;97.90;;;;;;4917932;29;20044;-45
2021/11/18 01:15:25;;;;;;;3.83;1.85;;;16.40;98.10;;;;;;4918294;29;20031;-45
2021/11/18 01:17:51;;;;;;;4.88;1.73;;;16.40;95.30;;;;;;4918087;29;20111;-45
2021/11/18 01:20:19;;;;;;;7.95;2.45;;;16.20;75.00;;;;;;4918239;29;20115;-46
2021/11/18 01:22:45;;;;;;;6.00;1.73;;;;;;;;;;4918216;29;20075;-46
2021/11/18 01:25:13;;;;;;;5.18;1.75;;;16.10;76.40;;;;;;4917946;29;20064;-45
2021/11/18 01:27:39;;;;;;;5.22;1.85;;;16.10;97.80;;;;;;4900993;29;20059;-46
2021/11/18 01:30:08;;;;;;;3.42;1.73;;;16.30;82.70;;;;;;4918139;29;20016;-45
2021/11/18 01:32:34;;;;;;;4.57;2.03;;;16.30;98.90;;;;;;4917997;29;20099;-45
2021/11/18 01:35:00;;;;;;;4.53;1.90;;;16.10;98.80;;;;;;4917839;29;20133;-45
2021/11/18 01:37:25;;;;;;;5.32;2.20;;;16.30;99.20;;;;;;4917584;29;20133;-45
2021/11/18 01:39:51;;;;;;;5.53;1.85;;;16.20;99.20;;;;;;4917955;29;20028;-45
2021/11/18 01:42:17;;;;;;;8.52;2.20;;;16.30;99.30;;;;;;4917540;29;20059;-46
2021/11/18 01:44:46;;;;;;;5.53;2.10;;;16.20;76.80;;;;;;4918169;29;20036;-45
2021/11/18 01:47:12;;;;;;;6.53;2.10;;;16.30;99.40;;;;;;4917817;29;20083;-45
2021/11/18 01:49:39;;;;;;;6.78;2.08;;;16.30;99.50;;;;;;4917625;29;20040;-45
2021/11/18 01:52:07;;;;;;;5.07;1.80;;;15.80;99.40;;;;;;4917609;29;20395;-45
2021/11/18 01:54:35;;;;;;;5.20;2.10;;;16.10;77.00;;;;;;4917341;29;20032;-45
2021/11/18 01:57:04;;;;;;;5.97;1.92;;;16.20;77.10;;;;;;4917693;29;20028;-45
2021/11/18 01:59:32;;;;;;;11.05;2.40;;;15.90;99.30;;;;;;4917246;29;20032;-45
2021/11/18 02:01:59;;;;;;;4.25;1.58;;;16.20;77.10;;;;;;4917331;29;20023;-45
2021/11/18 02:04:31;;;;;;;4.80;2.08;;;16.10;77.40;;;;;;4917209;29;20020;-46
2021/11/18 02:07:03;;;;;;;4.72;1.95;;;16.10;77.20;;;;;;4917185;29;20517;-47
2021/11/18 02:09:36;;;;;;;9.23;2.85;;;16.30;99.90;;;;;;4917396;29;20028;-46
2021/11/18 02:12:06;;;;;;;3.17;1.60;;;16.20;99.90;;;;;;4916856;29;20119;-45
2021/11/18 02:14:33;;;;;;;4.40;1.80;;;16.20;99.90;;;;;;4917094;29;20021;-45
2021/11/18 02:17:01;;;;;;;5.80;2.03;;;15.90;96.10;;;;;;4917372;29;20383;-45
2021/11/18 02:19:28;;;;;;;6.15;1.92;;;16.30;77.40;;;;;;4917005;29;20415;-45
2021/11/18 02:21:53;;;;;;;5.95;2.20;;;15.80;99.90;;;;;;4916939;29;20031;-46
2021/11/18 02:24:25;;;;;;;4.93;1.88;;;16.10;78.60;;;;;;4917186;29;20024;-45
2021/11/18 02:26:51;;;;;;;6.85;2.30;;;16.20;99.90;;;;;;4917042;29;20024;-46
2021/11/18 02:29:19;;;;;;;6.30;2.50;;;16.10;99.90;;;;;;4917119;29;20024;-45
2021/11/18 02:31:56;;;;;;;4.63;1.67;;;16.10;79.00;;;;;;4916667;29;20044;-46
2021/11/18 02:34:33;;;;;;;5.25;2.10;;;16.00;78.90;;;;;;4916724;29;20119;-46
2021/11/18 02:36:59;;;;;;;4.25;2.08;;;;;;;;;;4901023;29;20040;-45
2021/11/18 02:39:25;;;;;;;7.70;2.08;;;;;;;;;;4916968;29;20024;-45
2021/11/18 02:41:51;;;;;;;4.32;2.00;;;;;;;;;;4916887;29;20028;-45
2021/11/18 02:44:17;;;;;;;4.43;1.65;;;;;;;;;;4916596;29;20036;-46
2021/11/18 02:46:43;;;;;;;4.88;1.75;;;;;;;;;;4916673;29;20032;-46
2021/11/18 02:49:09;;;;;;;7.05;1.80;;;;;;;;;;4916573;29;20036;-45
2021/11/18 02:51:35;;;;;;;4.65;2.10;;;;;;;;;;4916516;29;20391;-45
2021/11/18 02:54:02;;;;;;;5.82;2.13;;;16.00;79.30;;;;;;4916311;29;20032;-45
2021/11/18 02:56:29;;;;;;;4.95;2.28;;;;;;;;;;4916590;29;20032;-45
2021/11/18 02:58:55;;;;;;;5.75;1.90;;;16.00;76.00;;;;;;4916785;29;20028;-45
2021/11/18 03:01:46;;;;;;;5.32;2.10;;;16.00;74.00;;;;;;4916489;29;20024;-45
2021/11/18 03:04:12;;;;;;;;;;;16.20;80.10;;;;;;4916968;29;20087;-45
2021/11/18 03:06:37;;;;;;;4.18;1.75;;;16.20;99.90;;;;;;4916410;29;20251;-45
2021/11/18 03:09:04;;;;;;;4.43;1.90;;;16.00;79.30;;;;;;4916067;29;20038;-44
2021/11/18 03:11:31;;;;;;;5.63;2.17;;;16.00;77.80;;;;;;4916065;29;20032;-46
2021/11/18 03:13:57;;;;;;;3.58;1.88;;;15.80;76.80;;;;;;4915797;29;20456;-46
2021/11/18 03:16:23;;;;;;;5.18;1.65;;;15.90;78.10;;;;;;4916033;29;20056;-46
2021/11/18 03:18:49;;;;;;;7.97;2.47;;;;;;;;;;4915887;29;20036;-46
2021/11/18 03:21:19;;;;;;;3.65;1.80;;;16.00;79.70;;;;;;4916236;29;20043;-45
2021/11/18 03:23:45;;;;;;;7.80;2.10;;;;;;;;;;4915258;29;20034;-46
2021/11/18 03:26:14;;;;;;;7.10;2.10;;;16.00;79.80;;;;;;4915886;29;20317;-46
2021/11/18 03:28:40;;;;;;;7.47;1.83;;;;;;;;;;4915843;29;20040;-46
2021/11/18 03:31:08;;;;;;;3.92;2.05;;;16.00;79.90;;;;;;4916034;29;20032;-46
2021/11/18 03:33:42;;;;;;;4.32;1.92;;;15.90;74.80;;;;;;4916187;29;20040;-45
2021/11/18 03:36:09;;;;;;;7.13;2.33;;;15.80;79.70;;;;;;4916232;29;20024;-46
2021/11/18 03:38:36;;;;;;;7.20;1.90;;;15.90;77.30;;;;;;4916141;29;20032;-46
2021/11/18 03:41:04;;;;;;;4.88;2.00;;;15.90;79.90;;;;;;4915732;29;20103;-46
2021/11/18 03:43:33;;;;;;;5.88;2.10;;;15.90;79.90;;;;;;4916115;29;20028;-46
2021/11/18 03:45:59;;;;;;;5.35;1.98;;;;;;;;;;4915621;29;20036;-45
2021/11/18 03:48:29;;;;;;;4.70;2.25;;;;;;;;;;4915821;29;20032;-45
2021/11/18 03:50:55;;;;;;;4.30;2.10;;;;;;;;;;4915647;29;20104;-46
2021/11/18 03:53:21;;;;;;;5.05;2.20;;;;;;;;;;4916055;29;20020;-46
2021/11/18 03:55:47;;;;;;;4.80;2.00;;;;;;;;;;4915975;29;20056;-46
2021/11/18 03:58:13;;;;;;;7.22;2.33;;;;;;;;;;4915683;29;20028;-45
2021/11/18 04:00:41;;;;;;;4.95;2.00;;;15.70;79.50;;;;;;4915925;29;20043;-46
2021/11/18 04:03:08;;;;;;;5.55;2.15;;;15.90;79.50;;;;;;4915733;29;20091;-46
2021/11/18 04:05:34;;;;;;;9.05;2.75;;;;;;;;;;4915683;29;20029;-47
2021/11/18 04:08:00;;;;;;;4.43;1.60;;;;;;;;;;4915512;29;20033;-46
2021/11/18 04:10:29;;;;;;;6.03;2.10;;;15.90;79.80;;;;;;4915896;29;20033;-47
2021/11/18 04:12:55;;;;;;;6.13;2.08;;;;;;;;;;4915399;29;20576;-47
2021/11/18 04:15:24;;;;;;;6.10;2.40;;;15.90;80.10;;;;;;4915878;29;20424;-46
2021/11/18 04:17:50;;;;;;;4.93;2.13;;;;;;;;;;4915378;29;20443;-45
2021/11/18 04:20:16;;;;;;;4.50;2.30;;;15.90;78.40;;;;;;4915492;29;20550;-45
2021/11/18 04:22:44;;;;;;;7.88;2.42;;;15.70;79.80;;;;;;4915740;29;20067;-45
2021/11/18 04:25:12;;;;;;;4.97;1.88;;;15.80;80.00;;;;;;4915918;29;20016;-45
2021/11/18 04:27:41;;;;;;;5.13;2.20;;;15.90;78.70;;;;;;4915791;29;20191;-45
2021/11/18 04:30:07;;;;;;;7.22;2.03;;;;;;;;;;4915579;29;20032;-46
2021/11/18 04:32:34;;;;;;;5.38;2.15;;;;;;;;;;4915720;29;20391;-45
2021/11/18 04:35:00;;;;;;;7.43;2.15;;;;;;;;;;4918038;29;20028;-44
2021/11/18 04:37:26;;;;;;;7.40;2.08;;;;;;;;;;4918763;29;20040;-45
2021/11/18 04:39:52;;;;;;;5.55;2.33;;;;;;;;;;4918942;29;20437;-45
2021/11/18 04:42:19;;;;;;;6.75;2.50;;;16.00;80.20;;;;;;4918824;29;20083;-45
2021/11/18 04:44:45;;;;;;;4.68;2.20;;;;;;;;;;4918850;29;20024;-46
2021/11/18 04:47:12;;;;;;;5.88;1.95;;;;;;;;;;4918538;29;20063;-46
2021/11/18 04:49:42;;;;;;;5.70;2.08;;;15.70;80.10;;;;;;4918731;29;20039;-45
2021/11/18 04:52:09;;;;;;;5.88;2.00;;;15.80;80.30;;;;;;4918712;29;20036;-46
2021/11/18 04:54:35;;;;;;;6.93;2.72;;;;;;;;;;4918769;29;20024;-45
2021/11/18 04:57:02;;;;;;;4.97;2.60;;;15.70;80.20;;;;;;4918431;29;20024;-44
2021/11/18 04:59:28;;;;;;;5.50;2.33;;;;;;;;;;4918453;29;20020;-45
2021/11/18 05:01:54;;;;;;;4.60;2.25;;;;;;;;;;4918390;29;20032;-46
2021/11/18 05:04:20;;;;;;;4.95;1.88;;;;;;;;;;4918239;29;20035;-46
2021/11/18 05:06:47;;;;;;;7.95;2.35;;;;;;;;;;4918343;29;20497;-45
2021/11/18 05:09:13;;;;;;;6.45;2.50;;;15.60;80.10;;;;;;4918588;29;20043;-44
2021/11/18 05:11:40;;;;;;;5.75;2.22;;;15.60;80.00;;;;;;4918010;29;20040;-44
2021/11/18 05:14:06;;;;;;;5.80;2.10;;;15.60;76.80;;;;;;4918063;29;20044;-46
2021/11/18 05:16:32;;;;;;;4.60;2.10;;;;;;;;;;4918185;29;20187;-46
2021/11/18 05:18:58;;;;;;;8.30;2.22;;;;;;;;;;4918043;29;20511;-45
2021/11/18 05:21:28;;;;;;;5.25;2.03;;;15.70;79.60;;;;;;4918266;29;20028;-46
2021/11/18 05:23:54;;;;;;;4.53;1.90;;;;;;;;;;4918122;29;20514;-45
2021/11/18 05:26:20;;;;;;;4.90;1.90;;;15.60;80.10;;;;;;4918205;29;20028;-47
2021/11/18 05:28:47;;;;;;;7.50;2.10;;;;;;;;;;4917932;29;20025;-45
2021/11/18 05:31:16;;;;;;;6.05;1.88;;;15.60;80.10;;;;;;4918028;29;20387;-47
2021/11/18 05:33:43;;;;;;;6.53;2.53;;;15.60;78.30;;;;;;4917822;29;20060;-46
2021/11/18 05:36:09;;;;;;;5.90;2.03;;;;;;;;;;4917725;29;20036;-45
2021/11/18 05:38:35;;;;;;;6.45;2.35;;;;;;;;;;4917955;29;20025;-45
2021/11/18 05:41:01;;;;;;;4.95;1.88;;;;;;;;;;4917998;29;20456;-45
2021/11/18 05:43:29;;;;;;;4.95;2.45;;;15.70;80.00;;;;;;4917729;29;20164;-45
2021/11/18 05:45:55;;;;;;;6.53;2.05;;;;;;;;;;4917251;29;20036;-46
2021/11/18 05:48:21;;;;;;;7.13;2.70;;;;;;;;;;4917502;29;20501;-46
2021/11/18 05:50:53;;;;;;;5.95;2.50;;;15.70;79.30;;;;;;4917514;29;20032;-46
2021/11/18 05:53:23;;;;;;;8.50;2.63;;;15.70;79.30;;;;;;4917361;29;20048;-45
2021/11/18 05:55:49;;;;;;;5.70;2.65;;;;;;;;;;4917680;29;20031;-45
2021/11/18 05:58:16;;;;;;;3.45;1.83;;;;;;;;;;4917602;29;20032;-45
2021/11/18 06:00:42;;;;;;;5.63;2.25;;;;;;;;;;4917672;29;20390;-46
2021/11/18 06:03:08;;;;;;;4.90;2.42;;;;;;;;;;4917318;29;20032;-45
2021/11/18 06:05:34;;;;;;;5.07;2.20;;;;;;;;;;4917375;29;20120;-45
2021/11/18 06:08:00;;;;;;;6.22;2.33;;;;;;;;;;4917478;29;20048;-44
2021/11/18 06:10:28;;;;;;;7.20;2.33;;;15.80;79.70;;;;;;4917392;29;20483;-45
2021/11/18 06:12:54;;;;;;;6.13;2.15;;;15.80;76.90;;;;;;4917013;29;20091;-45
2021/11/18 06:15:21;;;;;;;7.10;2.03;;;;;;;;;;4917288;29;20074;-45
2021/11/18 06:17:47;;;;;;;4.95;2.15;;;;;;;;;;4917023;29;20479;-45
2021/11/18 06:20:14;;;;;;;5.43;1.63;;;;;;;;;;4917063;29;20031;-45
2021/11/18 06:22:40;;;;;;;4.80;1.80;;;;;;;;;;4917153;29;20028;-45
2021/11/18 06:25:08;;;;;;;5.65;2.35;;;16.00;80.10;;;;;;4916894;29;20499;-46
2021/11/18 06:27:39;;;;;;;6.43;2.33;;;16.20;74.30;;;;;;4917098;29;20379;-45
2021/11/18 06:30:10;;;;;;;6.57;1.98;;;16.20;79.50;;;;;;4916874;29;20024;-45
2021/11/18 06:32:36;;;;;;;4.20;1.90;;;;;;;;;;4916914;29;20380;-45
2021/11/18 06:35:02;;;;;;;5.50;2.10;;;;;;;;;;4916814;29;20028;-45
2021/11/18 06:37:28;;;;;;;5.10;2.00;;;;;;;;;;4916691;29;20494;-45
2021/11/18 06:39:54;;;;;;;3.97;1.73;;;;;;;;;;4916914;29;20024;-45
2021/11/18 06:42:20;;;;;;;5.07;2.13;;;;;;;;;;4916550;29;20483;-45
2021/11/18 06:44:46;;;;;;;6.18;2.20;;;;;;;;;;4916491;29;20032;-45
2021/11/18 06:47:12;;;;;;;7.32;2.50;;;;;;;;;;4916848;29;20031;-45
2021/11/18 06:49:38;;;;;;;6.30;2.35;;;;;;;;;;4916739;29;20495;-45
2021/11/18 06:52:05;;;;;;;5.00;2.03;;;16.50;79.50;;;;;;4916885;29;20514;-45
2021/11/18 06:54:32;;;;;;;4.93;2.03;;;;;;;;;;4916456;29;20080;-45
2021/11/18 06:56:58;;;;;;;7.68;2.25;;;;;;;;;;4915301;29;20099;-46
2021/11/18 06:59:24;;;;;;;6.50;1.90;;;;;;;;;;4915705;29;20059;-45
2021/11/18 07:01:50;;;;;;;5.47;2.05;;;;;;;;;;4916299;29;20028;-45
2021/11/18 07:04:16;;;;;;;5.75;2.72;;;;;;;;;;4916464;29;20032;-45
2021/11/18 07:06:42;;;;;;;4.93;2.03;;;;;;;;;;4916134;29;20079;-46
2021/11/18 07:09:10;;;;;;;7.28;2.30;;;16.40;79.90;;;;;;4916557;29;20035;-45
2021/11/18 07:11:36;;;;;;;4.82;2.00;;;16.40;77.60;;;;;;4915962;29;20032;-45
2021/11/18 07:14:03;;;;;;;5.85;2.17;;;16.40;80.20;;;;;;4916419;29;20380;-45
2021/11/18 07:16:30;;;;;;;4.00;2.35;;;16.40;78.40;;;;;;4916346;29;20024;-46
2021/11/18 07:18:56;;;;;;;5.97;2.15;;;;;;;;;;4916196;29;20032;-46
2021/11/18 07:21:23;;;;;;;7.05;2.17;;;16.20;80.00;;;;;;4916335;29;20040;-45
2021/11/18 07:23:52;;;;;;;7.97;2.17;;;16.40;79.70;;;;;;4915891;29;20111;-45
2021/11/18 07:26:19;;;;;;;7.18;2.00;;;16.40;76.20;;;;;;4915903;29;20028;-45
2021/11/18 07:28:45;;;;;;;6.68;2.10;;;;;;;;;;4898843;29;20020;-45
2021/11/18 07:31:11;;;;;;;7.60;2.35;;;;;;;;;;4915984;29;20498;-45
2021/11/18 07:33:38;;;;;;;6.07;2.10;;;16.30;79.00;;;;;;4915997;29;20032;-45
2021/11/18 07:36:04;;;;;;;8.07;2.65;;;;;;;;;;4915513;29;20031;-45
2021/11/18 07:38:31;;;;;;;6.70;2.55;;;16.40;79.10;;;;;;4916000;29;20039;-45
2021/11/18 07:40:58;;;;;;;7.60;2.45;;;;;;;;;;4915738;29;20431;-45
2021/11/18 07:43:29;;;;;;;11.35;2.95;;;16.20;79.00;;;;;;4916072;29;20024;-45
2021/11/18 07:45:58;;;;;;;7.07;2.45;;;16.40;78.50;;;;;;4915907;29;20028;-46
2021/11/18 07:48:24;;;;;;;8.00;2.53;;;;;;;;;;4915431;29;20107;-45
2021/11/18 07:50:50;;;;;;;11.18;2.40;;;;;;;;;;4915669;29;20064;-45
2021/11/18 07:53:17;;;;;;;4.65;2.25;;;;;;;;;;4915956;29;20044;-46
2021/11/18 07:55:43;;;;;;;8.05;2.33;;;;;;;;;;4915623;29;20051;-45
2021/11/18 07:58:09;;;;;;;5.32;2.65;;;;;;;;;;4915922;29;20182;-45
2021/11/18 08:00:35;;;;;;;10.88;3.67;;;16.30;77.50;;;;;;4915937;29;20531;-45
2021/11/18 08:03:09;;;;;;;8.55;2.80;;;16.20;72.30;;;;;;4915742;29;20033;-44
2021/11/18 08:05:35;;;;;;;7.53;2.53;;;;;;;;;;4915797;29;20032;-47
2021/11/18 08:08:01;;;;;;;8.43;3.00;;;;;;;;;;4915297;29;20040;-48
2021/11/18 08:10:27;;;;;;;12.38;3.15;;;;;;;;;;4919111;29;20035;-48
2021/11/18 08:12:53;;;;;;;11.15;3.05;;;;;;;;;;4918831;29;20070;-48
2021/11/18 08:15:19;;;;;;;6.45;2.83;;;;;;;;;;4919174;29;20111;-48
2021/11/18 08:17:46;;;;;;;8.73;2.97;;;16.30;75.90;;;;;;4919420;29;20084;-47
2021/11/18 08:20:13;;;;;;;8.93;2.95;;;16.10;77.10;;;;;;4919363;29;20057;-48
2021/11/18 08:22:39;;;;;;;7.03;2.72;;;16.20;74.50;;;;;;4919062;29;20031;-50
2021/11/18 08:25:05;;;;;;;10.65;3.15;;;;;;;;;;4919448;29;20443;-49
2021/11/18 08:27:32;;;;;;;7.65;2.88;;;;;;;;;;4919318;29;20039;-51
2021/11/18 08:29:58;;;;;;;5.43;2.60;;;;;;;;;;4918810;29;20103;-50
2021/11/18 08:32:25;;;;;;;7.57;3.05;;;;;;;;;;4918769;29;20048;-50
2021/11/18 08:34:51;;;;;;;8.10;2.85;;;;;;;;;;4918800;29;20059;-49
2021/11/18 08:37:18;;;;;;;10.05;3.20;;;16.10;75.70;;;;;;4919003;29;20028;-49
2021/11/18 08:39:44;;;;;;;14.63;3.30;;;;;;;;;;4918872;29;20043;-50
2021/11/18 08:42:13;;;;;;;11.73;3.15;;;16.20;77.60;;;;;;4918626;29;20024;-50
2021/11/18 08:44:40;;;;;;;7.30;2.35;;;16.30;78.00;;;;;;4918784;29;20028;-48
2021/11/18 08:47:07;;;;;;;10.15;3.30;;;16.40;77.90;;;;;;4918759;29;20040;-50
2021/11/18 08:49:34;;;;;;;10.35;3.10;;;;;;;;;;4918930;29;20059;-49
2021/11/18 08:52:06;;;;;;;8.15;3.00;;;16.50;77.60;;;;;;4918677;29;20399;-49
2021/11/18 08:54:32;;;;;;;10.40;3.20;;;;;;;;;;4918482;29;20475;-51
2021/11/18 08:56:59;;;;;;;7.65;3.22;;;16.50;75.30;;;;;;4918397;29;20024;-45
2021/11/18 08:59:25;;;;;;;12.30;2.92;;;;;;;;;;4918707;29;20028;-45
2021/11/18 09:01:55;;;;;;;10.63;2.70;;;16.60;77.40;;;;;;4918320;29;20028;-46
2021/11/18 09:04:23;;;;;;;7.72;2.72;;;16.50;77.30;;;;;;4918535;29;20020;-45
2021/11/18 09:06:49;;;;;;;6.85;3.22;;;16.50;74.70;;;;;;4918606;29;20103;-45
2021/11/18 09:09:16;;;;;;;6.95;2.95;;;16.70;77.30;;;;;;4918457;29;20083;-46
2021/11/18 09:11:44;;;;;;;6.72;3.10;;;16.70;76.70;;;;;;4918281;29;20119;-45
2021/11/18 09:14:10;;;;;;;8.15;2.60;;;16.60;77.30;;;;;;4918332;29;20450;-45
2021/11/18 09:16:38;;;;;;;6.88;2.50;;;16.70;77.20;;;;;;4918312;29;20119;-46
2021/11/18 09:19:08;;;;;;;12.85;3.00;;;16.50;77.20;;;;;;4918142;29;20034;-45
2021/11/18 09:21:35;;;;;;;8.38;2.72;;;;;;;;;;4917289;29;20029;-45
2021/11/18 09:24:05;;;;;;;8.02;2.45;;;16.80;72.30;;;;;;4917980;29;20028;-46
2021/11/18 09:26:35;;;;;;;7.05;2.38;;;16.70;77.70;;;;;;4918466;29;20032;-45
2021/11/18 09:29:01;;;;;;;6.90;2.60;;;;;;;;;;4918229;29;20475;-45
2021/11/18 09:31:28;;;;;;;8.25;2.72;;;16.70;76.90;;;;;;4917699;29;20036;-45
2021/11/18 09:33:54;;;;;;;6.93;2.78;;;16.80;77.80;;;;;;4917829;29;20076;-45
2021/11/18 09:36:22;;;;;;;8.32;2.33;;;16.80;78.00;;;;;;4918107;29;20028;-45
2021/11/18 09:38:49;;;;;;;8.02;2.63;;;16.80;77.80;;;;;;4918067;29;20028;-46
2021/11/18 09:41:23;;;;;;;7.03;2.35;;;16.80;77.90;;;;;;4917982;29;20271;-46
2021/11/18 09:44:16;;;;;;;8.65;2.55;;;16.90;72.50;;;;;;4917597;29;20036;-45
2021/11/18 09:47:06;;;;;;;10.35;3.70;;;16.80;72.50;;;;;;4917842;29;20040;-45
2021/11/18 09:49:48;;;;;;;5.77;2.47;;;16.80;78.00;;;;;;4917478;29;20032;-45
2021/11/18 09:52:33;;;;;;;9.95;2.90;;;16.70;72.60;;;;;;4917550;29;20040;-45
2021/11/18 09:55:35;;;;;;;5.40;2.35;;;16.80;72.60;;;;;;4917601;29;20032;-48
2021/11/18 09:58:00;;;;;;;8.68;2.50;;;;;;;;;;4899028;29;20099;-49
2021/11/18 10:00:34;;;;;;;9.43;2.67;;;16.80;78.10;;;;;;4917249;29;20036;-50
2021/11/18 10:03:10;;;;;;;6.22;2.40;;;16.70;72.90;;;;;;4917532;29;20083;-48
2021/11/18 10:05:44;;;;;;;6.63;2.30;;;16.70;73.10;;;;;;4917327;29;20046;-49
2021/11/18 10:08:18;;;;;;;7.95;2.75;;;16.80;78.30;;;;;;4917425;29;20424;-50
2021/11/18 10:10:58;;;;;;;6.15;2.42;;;16.70;73.00;;;;;;4917124;29;20028;-49
2021/11/18 10:13:41;;;;;;;6.27;2.30;;;16.70;78.30;;;;;;4916949;29;20059;-50
2021/11/18 10:16:27;;;;;;;8.13;2.50;;;16.70;73.10;;;;;;4917308;29;20059;-49
2021/11/18 10:19:05;;;;;;;5.85;2.30;;;16.70;73.00;;;;;;4916942;29;20206;-49
2021/11/18 10:21:34;;;;;;;6.50;2.25;;;16.80;78.60;;;;;;4916740;29;20032;-49
2021/11/18 10:24:09;;;;;;;5.70;2.38;;;16.70;78.60;;;;;;4916892;29;20032;-51
2021/11/18 10:26:45;;;;;;;6.20;2.30;;;16.60;73.50;;;;;;4916925;29;20387;-50
2021/11/18 10:29:24;;;;;;;10.52;2.78;;;16.60;73.30;;;;;;4916931;29;20424;-49
2021/11/18 10:32:06;;;;;;;9.93;2.92;;;16.60;73.10;;;;;;4916491;29;20040;-50
2021/11/18 10:34:51;;;;;;;5.75;2.65;;;16.40;73.50;;;;;;4916617;29;20040;-49
2021/11/18 10:37:22;;;;;;;5.68;2.42;;;16.60;73.00;;;;;;4917175;29;20032;-49
2021/11/18 10:39:48;;;;;;;7.47;2.65;;;;;;;;;;4916726;29;20031;-49
2021/11/18 10:42:22;;;;;;;8.95;2.60;;;16.60;73.00;;;;;;4916577;29;20036;-49
2021/11/18 10:45:11;;;;;;;11.55;2.85;;;16.60;73.10;;;;;;4916764;29;20380;-49
2021/11/18 10:47:55;;;;;;;5.93;2.30;;;16.60;73.20;;;;;;4916671;29;20051;-50
2021/11/18 10:50:40;;;;;;;11.93;3.15;;;16.60;73.40;;;;;;4916436;29;20028;-49
2021/11/18 10:53:26;;;;;;;11.13;2.97;;;16.40;73.80;;;;;;4916643;29;20032;-49
2021/11/18 10:56:07;;;;;;;9.18;3.17;;;16.60;74.20;;;;;;4916616;29;20380;-49
2021/11/18 10:58:36;;;;;;;7.10;2.90;;;16.50;79.50;;;;;;4916484;29;20499;-49
2021/11/18 11:01:08;;;;;;;8.13;2.78;;;16.50;79.50;;;;;;4916556;29;20020;-48
2021/11/18 11:03:34;;;;;;;5.55;2.50;;;;;;;;;;4916120;29;20028;-48
2021/11/18 11:06:20;;;;;;;7.07;2.35;;;16.50;73.90;;;;;;4916547;29;20068;-50
2021/11/18 11:08:46;;;;;;;9.73;3.38;;;;;;;;;;4916340;29;20433;-45
2021/11/18 11:11:12;;;;;;;7.85;2.65;;;;;;;;;;4916055;29;20028;-45
2021/11/18 11:13:38;;;;;;;7.25;2.38;;;;;;;;;;4915957;29;20082;-45
2021/11/18 11:16:25;;;;;;;6.53;2.35;;;16.60;73.60;;;;;;4916070;29;20028;-44
2021/11/18 11:19:31;;;;;;;8.75;2.13;;;16.60;79.20;;;;;;4916324;29;20427;-45
2021/11/18 11:22:13;;;;;;;11.75;2.60;;;16.60;74.30;;;;;;4895881;29;20036;-45
2021/11/18 11:25:08;;;;;;;7.30;2.78;;;16.50;74.60;;;;;;4909234;29;20129;-45
2021/11/18 11:27:57;;;;;;;7.65;2.60;;;16.50;74.20;;;;;;4915898;29;20035;-44
2021/11/18 11:30:23;;;;;;;6.55;2.58;;;;;;;;;;4915963;29;20059;-45
2021/11/18 11:33:02;;;;;;;8.35;2.75;;;16.50;79.30;;;;;;4915935;29;20075;-44
2021/11/18 11:35:42;;;;;;;5.88;2.28;;;16.40;74.40;;;;;;4915922;29;20036;-45
2021/11/18 11:38:38;;;;;;;8.40;2.60;;;16.40;74.70;;;;;;4916107;29;20028;-44
2021/11/18 11:41:25;;;;;;;9.52;2.45;;;16.40;74.80;;;;;;4915798;29;20048;-44
2021/11/18 11:44:30;;;;;;;8.35;2.60;;;16.40;74.50;;;;;;4916868;29;20502;-44
2021/11/18 11:46:56;;;;;;;6.28;2.70;;;;;;;;;;4887461;29;20051;-44
2021/11/18 11:49:37;;;;;;;7.55;2.35;;;16.50;74.20;;;;;;4919586;29;20051;-45
2021/11/18 11:52:33;;;;;;;4.93;2.40;;;16.50;74.30;;;;;;4919690;29;20036;-44
2021/11/18 11:55:13;;;;;;;6.05;2.42;;;16.50;74.20;;;;;;4919774;29;20059;-44
2021/11/18 11:57:45;;;;;;;9.65;2.58;;;16.50;74.00;;;;;;4919594;29;20087;-44
2021/11/18 12:00:19;;;;;;;7.40;2.50;;;16.50;73.80;;;;;;4919411;29;20062;-45
2021/11/18 12:03:11;;;;;;;5.63;2.78;;;16.40;73.50;;;;;;4919364;29;20024;-44
2021/11/18 12:05:47;;;;;;;6.85;2.30;;;16.40;78.80;;;;;;4919332;29;20024;-45
2021/11/18 12:08:13;;;;;;;6.28;2.20;;;;;;;;;;4919341;29;20040;-44
2021/11/18 12:10:48;;;;;;;5.47;3.08;;;16.50;78.40;;;;;;4919228;29;20028;-44
2021/11/18 12:13:31;;;;;;;8.38;3.03;;;16.50;72.80;;;;;;4919019;29;20139;-45
2021/11/18 12:16:10;;;;;;;3.97;2.10;;;16.50;73.00;;;;;;4919414;29;20068;-45
2021/11/18 12:18:51;;;;;;;6.50;2.63;;;16.50;72.50;;;;;;4919540;29;20024;-44
2021/11/18 12:21:19;;;;;;;7.10;2.70;;;16.50;78.20;;;;;;4919405;29;20368;-44
2021/11/18 12:24:02;;;;;;;8.52;2.45;;;16.50;72.80;;;;;;4919118;29;20031;-44
2021/11/18 12:26:44;;;;;;;9.00;2.67;;;16.60;78.40;;;;;;4919232;29;20028;-44
2021/11/18 12:29:25;;;;;;;8.93;2.50;;;16.60;73.10;;;;;;4919208;29;20060;-44
2021/11/18 12:32:08;;;;;;;7.38;3.05;;;16.50;72.90;;;;;;4918631;29;20116;-46
2021/11/18 12:34:59;;;;;;;6.50;2.30;;;16.60;72.90;;;;;;4919215;29;20373;-45
2021/11/18 12:37:47;;;;;;;6.68;2.15;;;16.60;78.30;;;;;;4919095;29;20435;-44
2021/11/18 12:40:13;;;;;;;9.70;2.55;;;;;;;;;;4889006;29;20115;-44
2021/11/18 12:43:03;;;;;;;6.07;2.30;;;16.60;73.10;;;;;;4918999;29;20048;-45
2021/11/18 12:45:29;;;;;;;4.57;2.15;;;;;;;;;;4918995;29;20032;-44
2021/11/18 12:48:06;;;;;;;9.10;2.20;;;16.50;73.20;;;;;;4918521;29;20047;-44
2021/11/18 12:50:38;;;;;;;6.05;2.53;;;16.50;78.30;;;;;;4918880;29;20436;-44
2021/11/18 12:53:12;;;;;;;4.63;2.10;;;16.50;73.20;;;;;;4918736;29;20123;-44
2021/11/18 12:55:52;;;;;;;5.60;2.90;;;16.50;78.90;;;;;;4918315;29;20482;-44
2021/11/18 12:58:27;;;;;;;12.38;3.00;;;16.50;73.60;;;;;;4918730;29;20036;-44
2021/11/18 13:01:21;;;;;;;5.20;2.30;;;16.50;73.50;;;;;;4918360;29;20048;-44
2021/11/18 13:03:50;;;;;;;5.07;2.58;;;;;;;;;;4895985;29;20040;-44
2021/11/18 13:06:39;;;;;;;6.20;2.15;;;16.60;73.20;;;;;;4918469;29;20067;-44
2021/11/18 13:09:10;;;;;;;10.00;2.38;;;16.70;72.70;;;;;;4916580;29;20072;-44
2021/11/18 13:11:44;;;;;;;6.03;2.50;;;16.90;72.50;;;;;;4918041;29;20116;-44
2021/11/18 13:14:11;;;;;;;7.60;2.28;;;;;;;;;;4918317;29;20040;-45
2021/11/18 13:16:49;;;;;;;3.85;2.10;;;16.90;71.70;;;;;;4918469;29;20040;-45
2021/11/18 13:19:23;;;;;;;6.22;2.20;;;17.20;71.70;;;;;;4918333;29;20032;-45
2021/11/18 13:22:18;;;;;;;6.25;1.88;;;17.20;71.60;;;;;;4918371;29;20024;-46
2021/11/18 13:25:04;;;;;;;7.00;2.05;;;17.40;71.50;;;;;;4890945;29;20428;-44
2021/11/18 13:28:08;;;;;;;5.93;2.10;;;17.50;71.60;;;;;;4918007;29;20395;-45
2021/11/18 13:30:52;;;;;;;5.82;1.73;;;17.60;71.30;;;;;;4917557;29;20040;-44
2021/11/18 13:33:46;;;;;;;5.93;2.50;;;17.60;71.20;;;;;;4917766;29;20032;-44
2021/11/18 13:36:20;;;;;;;6.88;2.22;;;17.60;71.20;;;;;;4915949;29;20036;-45
2021/11/18 13:38:57;;;;;;;6.15;1.67;;;17.60;71.10;;;;;;4918032;29;20028;-44